Hitachimaru — JD2063 — position and weather

sailwx.info

Track history (hours):
 
Tides and Currents Weather Stations Pressure Air Temp Water Temp Dewpoint Dewpoint Depression Visibility Wind Speed Wind Dir Waves Ship Positions

Hitachimaru

Last reported at 2014-Oct-30 04:17 UTC. Time now 2014-Oct-30 23:03 UTC.
Position N 34°08' E 134°59'.

Length 83 m; draft 4.5 m.

Type: Cargo ship. MMSI: 431301756.

Date/timePositionNaut miles runAvg speedWind from/ knotsBaromVisibWave heightAir tempDewpointWater temp
2014-Oct-30 04:17N 34°08' E 134°59'810.8
2014-Oct-30 03:32N 34°16' E 134°59'13 9.7
2014-Oct-30 02:10N 34°27' E 135°07'711.3
2014-Oct-30 01:32N 34°31' E 135°14'1010.5
2014-Oct-30 00:33N 34°36' E 135°25'2 0.2
2014-Oct-29 14:25N 34°34' E 135°27'0 0.0
2014-Oct-29 13:31N 34°34' E 135°27'0 0.0
2014-Oct-29 07:29N 34°34' E 135°27'1 1.5
2014-Oct-29 06:33N 34°35' E 135°27'1 0.1
2014-Oct-28 22:03N 34°35' E 135°28'2 2.9
2014-Oct-28 21:31N 34°34' E 135°27'0 0.0
2014-Oct-28 15:17N 34°34' E 135°27'6 8.2
2014-Oct-28 14:33N 34°34' E 135°20'2 2.1
2014-Oct-28 13:31N 34°33' E 135°18'0 0.0
2014-Oct-28 12:31N 34°33' E 135°18'4 3.9
2014-Oct-28 11:32N 34°30' E 135°15'1211.8
2014-Oct-28 10:30N 34°21' E 135°05'6 6.7
2014-Oct-28 09:33N 34°15' E 135°07'0 0.0
2014-Oct-28 08:33N 34°15' E 135°07'0 0.0
2014-Oct-28 07:30N 34°15' E 135°07'0 0.0
2014-Oct-28 06:33N 34°15' E 135°07'0 0.0
2014-Oct-28 05:33N 34°15' E 135°07'0 0.0
2014-Oct-28 04:33N 34°15' E 135°07'0 0.0
2014-Oct-28 03:33N 34°15' E 135°07'0 0.0
2014-Oct-28 02:30N 34°15' E 135°07'0 0.0
2014-Oct-28 01:33N 34°15' E 135°07'0 0.0
2014-Oct-28 00:30N 34°15' E 135°07'0 0.0
2014-Oct-27 23:33N 34°15' E 135°07'0 0.0
2014-Oct-27 22:33N 34°15' E 135°07'0 0.0
2014-Oct-27 21:33N 34°15' E 135°07'2 2.3
2014-Oct-27 20:33N 34°14' E 135°05'1111.0
2014-Oct-27 19:33N 34°03' E 135°02'  
2014-Oct-24 14:33N 35°19' E 139°43'1111.1
2014-Oct-24 13:33N 35°29' E 139°50'5 0.2
2014-Oct-23 07:30N 35°33' E 139°54'4 3.7
2014-Oct-23 06:32N 35°30' E 139°50'0 0.1
2014-Oct-23 05:33N 35°30' E 139°50'1111.2
2014-Oct-23 04:33N 35°20' E 139°44'1110.6
2014-Oct-23 03:33N 35°10' E 139°46'  
Track history (hours):
 
Tides and Currents Weather Stations Pressure Air Temp Water Temp Dewpoint Dewpoint Depression Visibility Wind Speed Wind Dir Waves Ship Positions

Hitachimaru

Last reported at 2014-Oct-30 04:17 UTC. Time now 2014-Oct-30 23:03 UTC.
Position N 34°08' E 134°59'.

Length 83 m; draft 4.5 m.

Type: Cargo ship. MMSI: 431301756.

Date/timePositionNaut miles runAvg speedWind from/ knotsBaromVisibWave heightAir tempDewpointWater temp
2014-Oct-30 04:17N 34°08' E 134°59'810.8
2014-Oct-30 03:32N 34°16' E 134°59'13 9.7
2014-Oct-30 02:10N 34°27' E 135°07'711.3
2014-Oct-30 01:32N 34°31' E 135°14'1010.5
2014-Oct-30 00:33N 34°36' E 135°25'2 0.2
2014-Oct-29 14:25N 34°34' E 135°27'0 0.0
2014-Oct-29 13:31N 34°34' E 135°27'0 0.0
2014-Oct-29 07:29N 34°34' E 135°27'1 1.5
2014-Oct-29 06:33N 34°35' E 135°27'1 0.1
2014-Oct-28 22:03N 34°35' E 135°28'2 2.9
2014-Oct-28 21:31N 34°34' E 135°27'0 0.0
2014-Oct-28 15:17N 34°34' E 135°27'6 8.2
2014-Oct-28 14:33N 34°34' E 135°20'2 2.1
2014-Oct-28 13:31N 34°33' E 135°18'0 0.0
2014-Oct-28 12:31N 34°33' E 135°18'4 3.9
2014-Oct-28 11:32N 34°30' E 135°15'1211.8
2014-Oct-28 10:30N 34°21' E 135°05'6 6.7
2014-Oct-28 09:33N 34°15' E 135°07'0 0.0
2014-Oct-28 08:33N 34°15' E 135°07'0 0.0
2014-Oct-28 07:30N 34°15' E 135°07'0 0.0
2014-Oct-28 06:33N 34°15' E 135°07'0 0.0
2014-Oct-28 05:33N 34°15' E 135°07'0 0.0
2014-Oct-28 04:33N 34°15' E 135°07'0 0.0
2014-Oct-28 03:33N 34°15' E 135°07'0 0.0
2014-Oct-28 02:30N 34°15' E 135°07'0 0.0
2014-Oct-28 01:33N 34°15' E 135°07'0 0.0
2014-Oct-28 00:30N 34°15' E 135°07'0 0.0
2014-Oct-27 23:33N 34°15' E 135°07'0 0.0
2014-Oct-27 22:33N 34°15' E 135°07'0 0.0
2014-Oct-27 21:33N 34°15' E 135°07'2 2.3
2014-Oct-27 20:33N 34°14' E 135°05'1111.0
2014-Oct-27 19:33N 34°03' E 135°02'  
2014-Oct-24 14:33N 35°19' E 139°43'1111.1
2014-Oct-24 13:33N 35°29' E 139°50'5 0.2
2014-Oct-23 07:30N 35°33' E 139°54'4 3.7
2014-Oct-23 06:32N 35°30' E 139°50'0 0.1
2014-Oct-23 05:33N 35°30' E 139°50'1111.2
2014-Oct-23 04:33N 35°20' E 139°44'1110.6
2014-Oct-23 03:33N 35°10' E 139°46'  

Dump ship's entire track history